TRA13X LPFR-EHAM
Flight info
| Callsign | TRA13X |
|---|---|
| Flight time | N/A |
| Altitude | 34000 |
| Route | ELVAR DCT BARDI DCT ZMR DCT NUBLO DCT RONSI DCT DELOG DCT DIDIG DCT USODA DCT ERCUT DCT DITAL DCT ELCOB DCT PODEM DCT BAZOS DCT LUMIL DCT BELOB UY873 DENUT |
| Aircraft | B738/M-SDE2E3FGHIRWXY/LB1 |
Departure
| Time | 2026-05-08 07:55 |
|---|---|
| Airport | Faro - Gago Coutinho International Airport (LPFR) |
Arrival
| Time | N/A |
|---|---|
| Airport | Amsterdam Airport Schiphol (EHAM) |
| Time | Latitude | Longitude | Altitude | Speed | Heading |
|---|---|---|---|---|---|
| 2026-05-08 07:26 | 37.01877 | -7.96619 | 21 ft | 0 kts | 11° |
| 2026-05-08 07:48 | 37.01854 | -7.96624 | 21 ft | 4 kts | 11° |
| 2026-05-08 07:48 | 37.01831 | -7.96630 | 22 ft | 4 kts | 5° |
| 2026-05-08 07:48 | 37.01808 | -7.96625 | 22 ft | 4 kts | 315° |
| 2026-05-08 07:49 | 37.01798 | -7.96601 | 20 ft | 1 kts | 278° |
| 2026-05-08 07:49 | 37.01797 | -7.96601 | 19 ft | 1 kts | 278° |
| 2026-05-08 07:51 | 37.01798 | -7.96601 | 20 ft | 1 kts | 278° |
| 2026-05-08 07:51 | 37.01802 | -7.96637 | 20 ft | 8 kts | 278° |
| 2026-05-08 07:51 | 37.01815 | -7.96738 | 19 ft | 15 kts | 281° |
| 2026-05-08 07:51 | 37.01818 | -7.96864 | 19 ft | 13 kts | 232° |
| 2026-05-08 07:52 | 37.01715 | -7.96903 | 20 ft | 18 kts | 198° |
| 2026-05-08 07:52 | 37.01694 | -7.97057 | 19 ft | 22 kts | 281° |
| 2026-05-08 07:52 | 37.01724 | -7.97274 | 19 ft | 27 kts | 280° |
| 2026-05-08 07:52 | 37.01756 | -7.97490 | 19 ft | 25 kts | 280° |
| 2026-05-08 07:53 | 37.01787 | -7.97710 | 21 ft | 26 kts | 281° |
| 2026-05-08 07:53 | 37.01820 | -7.97935 | 20 ft | 20 kts | 279° |
| 2026-05-08 07:53 | 37.01846 | -7.98132 | 19 ft | 25 kts | 279° |
| 2026-05-08 07:53 | 37.01782 | -7.98220 | 20 ft | 20 kts | 152° |
| 2026-05-08 07:54 | 37.01679 | -7.98080 | 21 ft | 21 kts | 131° |
| 2026-05-08 07:54 | 37.01632 | -7.97900 | 19 ft | 28 kts | 100° |
| 2026-05-08 07:54 | 37.01552 | -7.97339 | 19 ft | 105 kts | 100° |
| 2026-05-08 07:54 | 37.01381 | -7.96142 | 38 ft | 171 kts | 100° |
| 2026-05-08 07:55 | 37.01148 | -7.94558 | 533 ft | 198 kts | 101° |
| 2026-05-08 07:55 | 37.00878 | -7.92749 | 1023 ft | 225 kts | 100° |
| 2026-05-08 07:55 | 37.00587 | -7.90699 | 1427 ft | 250 kts | 100° |
| 2026-05-08 07:55 | 37.00274 | -7.88506 | 2157 ft | 262 kts | 100° |
| 2026-05-08 07:56 | 36.99948 | -7.86289 | 3254 ft | 254 kts | 100° |
| 2026-05-08 07:56 | 36.99637 | -7.84167 | 4434 ft | 243 kts | 100° |
| 2026-05-08 07:56 | 36.99497 | -7.82104 | 5481 ft | 235 kts | 79° |
| 2026-05-08 07:56 | 37.00067 | -7.80188 | 6175 ft | 245 kts | 56° |
| 2026-05-08 07:57 | 37.01183 | -7.78434 | 6463 ft | 269 kts | 49° |
| 2026-05-08 07:57 | 37.02412 | -7.76613 | 7144 ft | 277 kts | 50° |
| 2026-05-08 07:57 | 37.03648 | -7.74746 | 7965 ft | 280 kts | 50° |
| 2026-05-08 07:57 | 37.04888 | -7.72847 | 8772 ft | 283 kts | 50° |
| 2026-05-08 07:58 | 37.06151 | -7.70933 | 9549 ft | 287 kts | 46° |
| 2026-05-08 07:58 | 37.07803 | -7.69557 | 10267 ft | 291 kts | 19° |
| 2026-05-08 07:58 | 37.09828 | -7.68907 | 10563 ft | 313 kts | 11° |
| 2026-05-08 07:58 | 37.12049 | -7.68387 | 10758 ft | 336 kts | 9° |
| 2026-05-08 07:59 | 37.14416 | -7.67871 | 11121 ft | 352 kts | 9° |
| 2026-05-08 07:59 | 37.16851 | -7.67334 | 11784 ft | 357 kts | 9° |
| 2026-05-08 07:59 | 37.19310 | -7.66778 | 12508 ft | 361 kts | 10° |
| 2026-05-08 07:59 | 37.21792 | -7.66204 | 13226 ft | 364 kts | 10° |
| 2026-05-08 08:00 | 37.24295 | -7.65616 | 13887 ft | 369 kts | 10° |
| 2026-05-08 08:00 | 37.26831 | -7.65015 | 14546 ft | 373 kts | 10° |
| 2026-05-08 08:00 | 37.29390 | -7.64406 | 15224 ft | 376 kts | 10° |
| 2026-05-08 08:00 | 37.31969 | -7.63790 | 15878 ft | 379 kts | 10° |
| 2026-05-08 08:01 | 37.34568 | -7.63170 | 16514 ft | 382 kts | 10° |
| 2026-05-08 08:01 | 37.37196 | -7.62542 | 17114 ft | 386 kts | 10° |
| 2026-05-08 08:01 | 37.39844 | -7.61909 | 17693 ft | 390 kts | 10° |
| 2026-05-08 08:01 | 37.42533 | -7.61339 | 18280 ft | 393 kts | 5° |
| 2026-05-08 08:02 | 37.45270 | -7.61167 | 18835 ft | 396 kts | 0° |
| 2026-05-08 08:02 | 37.48039 | -7.61196 | 19395 ft | 399 kts | 358° |
| 2026-05-08 08:02 | 37.50826 | -7.61280 | 19949 ft | 402 kts | 358° |
| 2026-05-08 08:02 | 37.53635 | -7.61359 | 20470 ft | 406 kts | 359° |
| 2026-05-08 08:03 | 37.56467 | -7.61414 | 20973 ft | 409 kts | 359° |
| 2026-05-08 08:03 | 37.59321 | -7.61447 | 21474 ft | 412 kts | 359° |
| 2026-05-08 08:03 | 37.62199 | -7.61462 | 21965 ft | 414 kts | 359° |
| 2026-05-08 08:03 | 37.65091 | -7.61467 | 22416 ft | 418 kts | 360° |
| 2026-05-08 08:04 | 37.68012 | -7.61466 | 22862 ft | 421 kts | 360° |
| 2026-05-08 08:04 | 37.70952 | -7.61464 | 23307 ft | 424 kts | 360° |
| 2026-05-08 08:04 | 37.73911 | -7.61461 | 23753 ft | 426 kts | 360° |
| 2026-05-08 08:04 | 37.76885 | -7.61459 | 24167 ft | 429 kts | 360° |
| 2026-05-08 08:05 | 37.79883 | -7.61457 | 24562 ft | 432 kts | 360° |
| 2026-05-08 08:05 | 37.82898 | -7.61455 | 24962 ft | 435 kts | 360° |
| 2026-05-08 08:05 | 37.85928 | -7.61454 | 25363 ft | 437 kts | 360° |
| 2026-05-08 08:05 | 37.88979 | -7.61453 | 25730 ft | 440 kts | 360° |
| 2026-05-08 08:06 | 37.92044 | -7.61452 | 26078 ft | 442 kts | 360° |
| 2026-05-08 08:06 | 37.95131 | -7.61450 | 26419 ft | 445 kts | 360° |
| 2026-05-08 08:06 | 37.98238 | -7.61449 | 26772 ft | 447 kts | 360° |
| 2026-05-08 08:06 | 38.01354 | -7.61448 | 27122 ft | 449 kts | 360° |
| 2026-05-08 08:07 | 38.04487 | -7.61446 | 27436 ft | 451 kts | 360° |
| 2026-05-08 08:07 | 38.07635 | -7.61444 | 27751 ft | 453 kts | 0° |
| 2026-05-08 08:07 | 38.10777 | -7.61066 | 28030 ft | 456 kts | 12° |
| 2026-05-08 08:07 | 38.13855 | -7.60088 | 28349 ft | 458 kts | 15° |
| 2026-05-08 08:08 | 38.16926 | -7.58972 | 28649 ft | 460 kts | 16° |
| 2026-05-08 08:08 | 38.20001 | -7.57822 | 28912 ft | 462 kts | 16° |
| 2026-05-08 08:08 | 38.23099 | -7.56678 | 29148 ft | 465 kts | 15° |
| 2026-05-08 08:08 | 38.26262 | -7.55537 | 29451 ft | 466 kts | 15° |
| 2026-05-08 08:09 | 38.29379 | -7.54440 | 29862 ft | 464 kts | 15° |
| 2026-05-08 08:09 | 38.32485 | -7.53362 | 30298 ft | 462 kts | 15° |
| 2026-05-08 08:09 | 38.35585 | -7.52297 | 30658 ft | 461 kts | 15° |
| 2026-05-08 08:09 | 38.38682 | -7.51235 | 30963 ft | 461 kts | 15° |
| 2026-05-08 08:10 | 38.41781 | -7.50173 | 31282 ft | 461 kts | 15° |
| 2026-05-08 08:10 | 38.44873 | -7.49112 | 31635 ft | 460 kts | 15° |
| 2026-05-08 08:10 | 38.47962 | -7.48051 | 31967 ft | 459 kts | 15° |
| 2026-05-08 08:10 | 38.51043 | -7.46989 | 32256 ft | 459 kts | 15° |
| 2026-05-08 08:11 | 38.54129 | -7.45925 | 32556 ft | 459 kts | 15° |
| 2026-05-08 08:11 | 38.57205 | -7.44863 | 32871 ft | 458 kts | 15° |
| 2026-05-08 08:11 | 38.60278 | -7.43801 | 33180 ft | 457 kts | 15° |
| 2026-05-08 08:11 | 38.63346 | -7.42740 | 33462 ft | 457 kts | 15° |
| 2026-05-08 08:12 | 38.66411 | -7.41679 | 33742 ft | 456 kts | 15° |
| 2026-05-08 08:12 | 38.69472 | -7.40618 | 33992 ft | 456 kts | 15° |
| 2026-05-08 08:12 | 38.72550 | -7.39550 | 33986 ft | 460 kts | 15° |
| 2026-05-08 08:13 | 38.78744 | -7.37399 | 33999 ft | 460 kts | 15° |
| 2026-05-08 08:13 | 38.84870 | -7.35268 | 33994 ft | 454 kts | 15° |
| 2026-05-08 08:14 | 38.90970 | -7.33142 | 34005 ft | 454 kts | 15° |
| 2026-05-08 08:14 | 38.97065 | -7.31013 | 34003 ft | 454 kts | 15° |
| 2026-05-08 08:15 | 39.03175 | -7.28876 | 34002 ft | 455 kts | 15° |
| 2026-05-08 08:15 | 39.09285 | -7.26734 | 34002 ft | 455 kts | 15° |
| 2026-05-08 08:16 | 39.15395 | -7.24589 | 34000 ft | 456 kts | 15° |
| 2026-05-08 08:16 | 39.21509 | -7.22398 | 34000 ft | 457 kts | 18° |
| 2026-05-08 08:17 | 39.27269 | -7.18957 | 34004 ft | 457 kts | 27° |
| 2026-05-08 08:17 | 39.31990 | -7.15749 | 34004 ft | 458 kts | 27° |
| 2026-05-08 08:18 | 39.37632 | -7.11926 | 34000 ft | 458 kts | 27° |
| 2026-05-08 08:18 | 39.43286 | -7.08144 | 34002 ft | 459 kts | 27° |
| 2026-05-08 08:19 | 39.48925 | -7.04393 | 34005 ft | 459 kts | 27° |
| 2026-05-08 08:19 | 39.54636 | -7.00592 | 34001 ft | 459 kts | 27° |
| 2026-05-08 08:20 | 39.60312 | -6.96806 | 33998 ft | 458 kts | 27° |
| 2026-05-08 08:20 | 39.65979 | -6.93017 | 34002 ft | 458 kts | 27° |
| 2026-05-08 08:21 | 39.71635 | -6.89228 | 34001 ft | 457 kts | 27° |
| 2026-05-08 08:21 | 39.77284 | -6.85437 | 34001 ft | 457 kts | 27° |
| 2026-05-08 08:22 | 39.82926 | -6.81643 | 34001 ft | 456 kts | 27° |
| 2026-05-08 08:22 | 39.88559 | -6.77849 | 34001 ft | 456 kts | 27° |
| 2026-05-08 08:23 | 39.94191 | -6.74048 | 34000 ft | 456 kts | 27° |
| 2026-05-08 08:23 | 39.99816 | -6.70244 | 33998 ft | 455 kts | 27° |
| 2026-05-08 08:24 | 40.05430 | -6.66441 | 34002 ft | 455 kts | 27° |
| 2026-05-08 08:24 | 40.11051 | -6.62626 | 34001 ft | 455 kts | 27° |
| 2026-05-08 08:25 | 40.16637 | -6.58829 | 34000 ft | 455 kts | 27° |
| 2026-05-08 08:25 | 40.22258 | -6.54999 | 34003 ft | 456 kts | 27° |
| 2026-05-08 08:26 | 40.27884 | -6.51159 | 34001 ft | 457 kts | 27° |
| 2026-05-08 08:26 | 40.33520 | -6.47305 | 34001 ft | 457 kts | 27° |
| 2026-05-08 08:27 | 40.39167 | -6.43436 | 34002 ft | 459 kts | 27° |
| 2026-05-08 08:27 | 40.44833 | -6.39547 | 34010 ft | 460 kts | 27° |
| 2026-05-08 08:28 | 40.50514 | -6.35639 | 34002 ft | 462 kts | 27° |
| 2026-05-08 08:28 | 40.56219 | -6.31708 | 34000 ft | 463 kts | 27° |
| 2026-05-08 08:29 | 40.61915 | -6.27779 | 34004 ft | 463 kts | 27° |
| 2026-05-08 08:29 | 40.67625 | -6.23842 | 34002 ft | 463 kts | 27° |
| 2026-05-08 08:30 | 40.73333 | -6.19898 | 34001 ft | 463 kts | 27° |
| 2026-05-08 08:30 | 40.81869 | -6.13984 | 33999 ft | 461 kts | 27° |
| 2026-05-08 08:31 | 40.87549 | -6.10038 | 34001 ft | 461 kts | 27° |
| 2026-05-08 08:31 | 40.93213 | -6.06096 | 34000 ft | 460 kts | 27° |
| 2026-05-08 08:32 | 40.98912 | -6.02121 | 34002 ft | 459 kts | 27° |
| 2026-05-08 08:32 | 41.04551 | -5.98180 | 34002 ft | 459 kts | 27° |
| 2026-05-08 08:33 | 41.10188 | -5.94233 | 33999 ft | 458 kts | 27° |
| 2026-05-08 08:33 | 41.15824 | -5.90280 | 34002 ft | 458 kts | 27° |
| 2026-05-08 08:34 | 41.21456 | -5.86321 | 34001 ft | 458 kts | 27° |
| 2026-05-08 08:34 | 41.27091 | -5.82353 | 34004 ft | 458 kts | 27° |
| 2026-05-08 08:35 | 41.32728 | -5.78374 | 34003 ft | 459 kts | 27° |
| 2026-05-08 08:35 | 41.38367 | -5.74387 | 34002 ft | 459 kts | 28° |
| 2026-05-08 08:36 | 41.44012 | -5.70387 | 34002 ft | 459 kts | 28° |
| 2026-05-08 08:36 | 41.49653 | -5.66382 | 34002 ft | 460 kts | 28° |
| 2026-05-08 08:37 | 41.55345 | -5.62498 | 34000 ft | 459 kts | 24° |
| 2026-05-08 08:37 | 41.61233 | -5.59179 | 34000 ft | 459 kts | 22° |
| 2026-05-08 08:38 | 41.67155 | -5.55966 | 34002 ft | 459 kts | 22° |
| 2026-05-08 08:38 | 41.73059 | -5.52690 | 34001 ft | 459 kts | 22° |
| 2026-05-08 08:39 | 41.78946 | -5.49367 | 34002 ft | 459 kts | 22° |
| 2026-05-08 08:39 | 41.84826 | -5.46026 | 34002 ft | 459 kts | 22° |
| 2026-05-08 08:40 | 41.90703 | -5.42680 | 34001 ft | 459 kts | 22° |
| 2026-05-08 08:40 | 41.96572 | -5.39335 | 34002 ft | 459 kts | 22° |
| 2026-05-08 08:41 | 42.02454 | -5.35976 | 34002 ft | 459 kts | 22° |
| 2026-05-08 08:41 | 42.08360 | -5.32598 | 34000 ft | 459 kts | 22° |
| 2026-05-08 08:42 | 42.14236 | -5.29229 | 34001 ft | 459 kts | 23° |
| 2026-05-08 08:42 | 42.20107 | -5.25857 | 34001 ft | 459 kts | 23° |
| 2026-05-08 08:43 | 42.25980 | -5.22476 | 34002 ft | 459 kts | 23° |
| 2026-05-08 08:43 | 42.31857 | -5.19086 | 34001 ft | 459 kts | 23° |
| 2026-05-08 08:44 | 42.37732 | -5.15690 | 34002 ft | 459 kts | 23° |
| 2026-05-08 08:44 | 42.43606 | -5.12288 | 34001 ft | 459 kts | 23° |
| 2026-05-08 08:45 | 42.49485 | -5.08876 | 33999 ft | 460 kts | 23° |
| 2026-05-08 08:45 | 42.55366 | -5.05456 | 34002 ft | 460 kts | 23° |
| 2026-05-08 08:46 | 42.61247 | -5.02028 | 34002 ft | 460 kts | 23° |
| 2026-05-08 08:46 | 42.67132 | -4.98591 | 34001 ft | 460 kts | 23° |
| 2026-05-08 08:47 | 42.73017 | -4.95150 | 34002 ft | 461 kts | 23° |
| 2026-05-08 08:47 | 42.78906 | -4.91698 | 33999 ft | 461 kts | 23° |
| 2026-05-08 08:48 | 42.84805 | -4.88233 | 33997 ft | 462 kts | 23° |
| 2026-05-08 08:48 | 42.90707 | -4.84758 | 34001 ft | 463 kts | 23° |
| 2026-05-08 08:49 | 42.96618 | -4.81271 | 34004 ft | 464 kts | 23° |
| 2026-05-08 08:49 | 43.02552 | -4.77763 | 34007 ft | 465 kts | 23° |
| 2026-05-08 08:50 | 43.08498 | -4.74240 | 34007 ft | 466 kts | 23° |
| 2026-05-08 08:50 | 43.14446 | -4.70708 | 34004 ft | 464 kts | 23° |
| 2026-05-08 08:51 | 43.20317 | -4.67215 | 33991 ft | 458 kts | 23° |
| 2026-05-08 08:51 | 43.26184 | -4.63717 | 34013 ft | 461 kts | 23° |
| 2026-05-08 08:52 | 43.32071 | -4.60199 | 34002 ft | 462 kts | 23° |
| 2026-05-08 08:52 | 43.37926 | -4.56693 | 33992 ft | 454 kts | 23° |
| 2026-05-08 08:53 | 43.42747 | -4.53800 | 33997 ft | 450 kts | 23° |
| 2026-05-08 08:53 | 43.48474 | -4.50358 | 33998 ft | 448 kts | 23° |
| 2026-05-08 08:54 | 43.54185 | -4.46921 | 34003 ft | 448 kts | 23° |
| 2026-05-08 08:54 | 43.59901 | -4.43475 | 34004 ft | 449 kts | 23° |
| 2026-05-08 08:55 | 43.65629 | -4.40014 | 34005 ft | 450 kts | 23° |
| 2026-05-08 08:55 | 43.71421 | -4.36506 | 34003 ft | 452 kts | 23° |
| 2026-05-08 08:56 | 43.77196 | -4.33001 | 34002 ft | 454 kts | 23° |
| 2026-05-08 08:56 | 43.82996 | -4.29473 | 34003 ft | 456 kts | 23° |
| 2026-05-08 08:57 | 43.88805 | -4.25932 | 34002 ft | 457 kts | 23° |
| 2026-05-08 08:57 | 43.94624 | -4.22377 | 33999 ft | 457 kts | 24° |
| 2026-05-08 08:58 | 44.00441 | -4.18816 | 33998 ft | 457 kts | 24° |
| 2026-05-08 08:58 | 44.06258 | -4.15247 | 34001 ft | 456 kts | 24° |
| 2026-05-08 08:59 | 44.12059 | -4.11680 | 34001 ft | 456 kts | 24° |
| 2026-05-08 08:59 | 44.17854 | -4.08110 | 34001 ft | 455 kts | 24° |
| 2026-05-08 09:00 | 44.23632 | -4.04541 | 34000 ft | 454 kts | 24° |
| 2026-05-08 09:00 | 44.29400 | -4.00972 | 34000 ft | 453 kts | 24° |
| 2026-05-08 09:01 | 44.35011 | -3.96997 | 34000 ft | 453 kts | 33° |
| 2026-05-08 09:01 | 44.40172 | -3.91951 | 33999 ft | 452 kts | 35° |
| 2026-05-08 09:02 | 44.45285 | -3.86822 | 34002 ft | 452 kts | 35° |
| 2026-05-08 09:02 | 44.50420 | -3.81731 | 34002 ft | 452 kts | 35° |
| 2026-05-08 09:03 | 44.55578 | -3.76664 | 34002 ft | 453 kts | 34° |
| 2026-05-08 09:03 | 44.60740 | -3.71598 | 34002 ft | 453 kts | 34° |
| 2026-05-08 09:04 | 44.65900 | -3.66523 | 34002 ft | 453 kts | 35° |
| 2026-05-08 09:04 | 44.71065 | -3.61431 | 34002 ft | 454 kts | 35° |
| 2026-05-08 09:05 | 44.76234 | -3.56321 | 34002 ft | 454 kts | 35° |
| 2026-05-08 09:05 | 44.81405 | -3.51199 | 34002 ft | 454 kts | 35° |
| 2026-05-08 09:06 | 44.86572 | -3.46068 | 34002 ft | 455 kts | 35° |
| 2026-05-08 09:06 | 44.91739 | -3.40926 | 34000 ft | 455 kts | 35° |
| 2026-05-08 09:07 | 44.96908 | -3.35771 | 34000 ft | 455 kts | 35° |
| 2026-05-08 09:07 | 45.02069 | -3.30612 | 34001 ft | 455 kts | 35° |
| 2026-05-08 09:08 | 45.07233 | -3.25438 | 34001 ft | 455 kts | 35° |
| 2026-05-08 09:08 | 45.12392 | -3.20258 | 34001 ft | 455 kts | 35° |
| 2026-05-08 09:09 | 45.17546 | -3.15070 | 34001 ft | 454 kts | 35° |
| 2026-05-08 09:09 | 45.22730 | -3.09841 | 34001 ft | 454 kts | 35° |
| 2026-05-08 09:10 | 45.27877 | -3.04638 | 34001 ft | 454 kts | 35° |
| 2026-05-08 09:10 | 45.32982 | -2.99465 | 34001 ft | 454 kts | 35° |
| 2026-05-08 09:11 | 45.38116 | -2.94251 | 34000 ft | 454 kts | 35° |
| 2026-05-08 09:11 | 45.43252 | -2.89023 | 34002 ft | 454 kts | 35° |
| 2026-05-08 09:12 | 45.48381 | -2.83790 | 34001 ft | 454 kts | 35° |
| 2026-05-08 09:12 | 45.53500 | -2.78555 | 34002 ft | 454 kts | 35° |
| 2026-05-08 09:13 | 45.58626 | -2.73302 | 34002 ft | 454 kts | 36° |
| 2026-05-08 09:13 | 45.63750 | -2.68038 | 34002 ft | 454 kts | 36° |
| 2026-05-08 09:14 | 45.68865 | -2.62771 | 34002 ft | 454 kts | 36° |
| 2026-05-08 09:14 | 45.73985 | -2.57487 | 34002 ft | 454 kts | 36° |
| 2026-05-08 09:15 | 45.79102 | -2.52194 | 34002 ft | 454 kts | 36° |
| 2026-05-08 09:15 | 45.84216 | -2.46892 | 34002 ft | 454 kts | 36° |
| 2026-05-08 09:16 | 45.89327 | -2.41580 | 34002 ft | 454 kts | 36° |
| 2026-05-08 09:16 | 45.94438 | -2.36255 | 34002 ft | 454 kts | 36° |
| 2026-05-08 09:17 | 45.99548 | -2.30919 | 34002 ft | 454 kts | 36° |
| 2026-05-08 09:17 | 46.04657 | -2.25573 | 33999 ft | 454 kts | 36° |
| 2026-05-08 09:18 | 46.09856 | -2.20416 | 34000 ft | 454 kts | 33° |
| 2026-05-08 09:18 | 46.15164 | -2.15494 | 34001 ft | 454 kts | 32° |
| 2026-05-08 09:19 | 46.20470 | -2.10548 | 34002 ft | 454 kts | 33° |
| 2026-05-08 09:19 | 46.25752 | -2.05556 | 34001 ft | 454 kts | 33° |
| 2026-05-08 09:20 | 46.31028 | -2.00533 | 34002 ft | 454 kts | 33° |
| 2026-05-08 09:20 | 46.36295 | -1.95503 | 34002 ft | 454 kts | 33° |
| 2026-05-08 09:21 | 46.41565 | -1.90461 | 34000 ft | 454 kts | 33° |
| 2026-05-08 09:23 | 46.59985 | -1.72747 | 34002 ft | 454 kts | 33° |
| 2026-05-08 09:23 | 46.65245 | -1.67662 | 34001 ft | 454 kts | 33° |
| 2026-05-08 09:24 | 46.70536 | -1.62533 | 34002 ft | 454 kts | 33° |
| 2026-05-08 09:24 | 46.75792 | -1.57428 | 34000 ft | 454 kts | 33° |
| 2026-05-08 09:25 | 46.81046 | -1.52312 | 34001 ft | 454 kts | 33° |
| 2026-05-08 09:25 | 46.86300 | -1.47183 | 34002 ft | 454 kts | 33° |
| 2026-05-08 09:26 | 46.91552 | -1.42043 | 34002 ft | 454 kts | 33° |
| 2026-05-08 09:26 | 46.96765 | -1.36834 | 33996 ft | 454 kts | 38° |
| 2026-05-08 09:27 | 47.01204 | -1.30269 | 34004 ft | 454 kts | 48° |
| 2026-05-08 09:27 | 47.05364 | -1.23302 | 34003 ft | 454 kts | 49° |
| 2026-05-08 09:28 | 47.09541 | -1.16350 | 34001 ft | 454 kts | 48° |
| 2026-05-08 09:28 | 47.13746 | -1.09421 | 34001 ft | 454 kts | 48° |
| 2026-05-08 09:29 | 47.17962 | -1.02483 | 34002 ft | 454 kts | 48° |
| 2026-05-08 09:29 | 47.22163 | -0.95551 | 34001 ft | 455 kts | 48° |
| 2026-05-08 09:30 | 47.25683 | -0.89725 | 34002 ft | 455 kts | 48° |
| 2026-05-08 09:30 | 47.29881 | -0.82761 | 34001 ft | 455 kts | 48° |
| 2026-05-08 09:31 | 47.34075 | -0.75785 | 34002 ft | 455 kts | 48° |
| 2026-05-08 09:31 | 47.38266 | -0.68795 | 34001 ft | 455 kts | 48° |
| 2026-05-08 09:32 | 47.42453 | -0.61797 | 34002 ft | 455 kts | 48° |
| 2026-05-08 09:32 | 47.47117 | -0.55531 | 34012 ft | 454 kts | 37° |
| 2026-05-08 09:33 | 47.52207 | -0.50017 | 33996 ft | 454 kts | 36° |
| 2026-05-08 09:33 | 47.57306 | -0.44500 | 34002 ft | 454 kts | 36° |
| 2026-05-08 09:34 | 47.62375 | -0.38931 | 34001 ft | 454 kts | 36° |
| 2026-05-08 09:34 | 47.67427 | -0.33329 | 34001 ft | 454 kts | 37° |
| 2026-05-08 09:35 | 47.72477 | -0.27708 | 34002 ft | 454 kts | 37° |
| 2026-05-08 09:35 | 47.77526 | -0.22075 | 33999 ft | 454 kts | 37° |
| 2026-05-08 09:36 | 47.82569 | -0.16435 | 34001 ft | 454 kts | 37° |
| 2026-05-08 09:36 | 47.87608 | -0.10786 | 34001 ft | 454 kts | 37° |
| 2026-05-08 09:37 | 47.92646 | -0.05125 | 34002 ft | 454 kts | 37° |
| 2026-05-08 09:37 | 47.97685 | 0.00551 | 34001 ft | 454 kts | 37° |
| 2026-05-08 09:38 | 48.02720 | 0.06237 | 34000 ft | 454 kts | 37° |
| 2026-05-08 09:38 | 48.07755 | 0.11938 | 34002 ft | 454 kts | 37° |
| 2026-05-08 09:39 | 48.12784 | 0.17646 | 34000 ft | 454 kts | 37° |
| 2026-05-08 09:39 | 48.17815 | 0.23371 | 34001 ft | 454 kts | 37° |
| 2026-05-08 09:40 | 48.22839 | 0.29102 | 34002 ft | 454 kts | 37° |
| 2026-05-08 09:40 | 48.27865 | 0.34851 | 34001 ft | 454 kts | 37° |
| 2026-05-08 09:41 | 48.32884 | 0.40606 | 33999 ft | 454 kts | 37° |
| 2026-05-08 09:41 | 48.37938 | 0.46415 | 34002 ft | 454 kts | 37° |
| 2026-05-08 09:42 | 48.42954 | 0.52197 | 34002 ft | 454 kts | 37° |
| 2026-05-08 09:42 | 48.47971 | 0.57993 | 34002 ft | 454 kts | 37° |
| 2026-05-08 09:43 | 48.52983 | 0.63799 | 34000 ft | 454 kts | 37° |
| 2026-05-08 09:43 | 48.57993 | 0.69619 | 34000 ft | 455 kts | 37° |
| 2026-05-08 09:44 | 48.63004 | 0.75453 | 34001 ft | 455 kts | 37° |
| 2026-05-08 09:44 | 48.68011 | 0.81300 | 34002 ft | 455 kts | 37° |
| 2026-05-08 09:45 | 48.73021 | 0.87162 | 34001 ft | 455 kts | 37° |
| 2026-05-08 09:45 | 48.78042 | 0.93001 | 34002 ft | 455 kts | 37° |
| 2026-05-08 09:46 | 48.83084 | 0.98790 | 34002 ft | 455 kts | 37° |
| 2026-05-08 09:46 | 48.88127 | 1.04598 | 34001 ft | 455 kts | 37° |
| 2026-05-08 09:47 | 48.93158 | 1.10422 | 34001 ft | 455 kts | 37° |
| 2026-05-08 09:47 | 48.98184 | 1.16258 | 34000 ft | 455 kts | 37° |
| 2026-05-08 09:48 | 49.03205 | 1.22114 | 33999 ft | 454 kts | 38° |
| 2026-05-08 09:48 | 49.07886 | 1.28582 | 34010 ft | 454 kts | 44° |
| 2026-05-08 09:49 | 49.12409 | 1.35317 | 34000 ft | 454 kts | 44° |
| 2026-05-08 09:49 | 49.16960 | 1.41999 | 34005 ft | 454 kts | 43° |
| 2026-05-08 09:50 | 49.21538 | 1.48651 | 33998 ft | 454 kts | 43° |
| 2026-05-08 09:50 | 49.26111 | 1.55310 | 34001 ft | 454 kts | 43° |
| 2026-05-08 09:51 | 49.30685 | 1.61974 | 34002 ft | 454 kts | 43° |
| 2026-05-08 09:51 | 49.35260 | 1.68646 | 34001 ft | 454 kts | 43° |
| 2026-05-08 09:52 | 49.39831 | 1.75334 | 34001 ft | 454 kts | 43° |
| 2026-05-08 09:52 | 49.44393 | 1.82030 | 34002 ft | 454 kts | 43° |
| 2026-05-08 09:53 | 49.48954 | 1.88740 | 34001 ft | 454 kts | 44° |
| 2026-05-08 09:53 | 49.53662 | 1.95208 | 34004 ft | 453 kts | 37° |
| 2026-05-08 09:54 | 49.58762 | 2.00934 | 33998 ft | 454 kts | 35° |
| 2026-05-08 09:54 | 49.63902 | 2.06584 | 34002 ft | 454 kts | 36° |
| 2026-05-08 09:55 | 49.69011 | 2.12309 | 33998 ft | 454 kts | 36° |
| 2026-05-08 09:55 | 49.74102 | 2.18092 | 34003 ft | 454 kts | 36° |
| 2026-05-08 09:56 | 49.79221 | 2.23938 | 33998 ft | 454 kts | 36° |
| 2026-05-08 09:56 | 49.84264 | 2.29712 | 34003 ft | 454 kts | 36° |
| 2026-05-08 09:57 | 49.91877 | 2.38454 | 33999 ft | 454 kts | 36° |
| 2026-05-08 09:57 | 49.96948 | 2.44296 | 34004 ft | 454 kts | 36° |
| 2026-05-08 09:58 | 50.02015 | 2.50148 | 33997 ft | 454 kts | 36° |
| 2026-05-08 09:58 | 50.07079 | 2.56013 | 34003 ft | 454 kts | 36° |
| 2026-05-08 09:59 | 50.12139 | 2.61890 | 34000 ft | 454 kts | 36° |
| 2026-05-08 09:59 | 50.17191 | 2.67772 | 34001 ft | 453 kts | 37° |
| 2026-05-08 10:00 | 50.22283 | 2.73719 | 34000 ft | 453 kts | 37° |
| 2026-05-08 10:00 | 50.27283 | 2.79573 | 34001 ft | 453 kts | 37° |
| 2026-05-08 10:01 | 50.32332 | 2.85501 | 34001 ft | 453 kts | 37° |
| 2026-05-08 10:01 | 50.37377 | 2.91440 | 34003 ft | 453 kts | 37° |
| 2026-05-08 10:02 | 50.42440 | 2.97331 | 33999 ft | 453 kts | 33° |
| 2026-05-08 10:02 | 50.47936 | 3.02144 | 34000 ft | 453 kts | 27° |
| 2026-05-08 10:03 | 50.53566 | 3.06717 | 33438 ft | 459 kts | 27° |
| 2026-05-08 10:03 | 50.56381 | 3.09052 | 32814 ft | 457 kts | 28° |
| 2026-05-08 10:03 | 50.59188 | 3.11416 | 32158 ft | 457 kts | 28° |
| 2026-05-08 10:04 | 50.61983 | 3.13791 | 31637 ft | 454 kts | 28° |
| 2026-05-08 10:04 | 50.64744 | 3.16145 | 31144 ft | 450 kts | 28° |
| 2026-05-08 10:04 | 50.67486 | 3.18484 | 30667 ft | 446 kts | 28° |
| 2026-05-08 10:04 | 50.69323 | 3.20051 | 30342 ft | 443 kts | 28° |
| 2026-05-08 10:05 | 50.72025 | 3.22352 | 29866 ft | 439 kts | 28° |
| 2026-05-08 10:05 | 50.75582 | 3.25330 | 29228 ft | 434 kts | 27° |
| 2026-05-08 10:05 | 50.77382 | 3.26826 | 28907 ft | 432 kts | 27° |
| 2026-05-08 10:05 | 50.80027 | 3.29023 | 28410 ft | 428 kts | 27° |
| 2026-05-08 10:06 | 50.82650 | 3.31205 | 27940 ft | 424 kts | 27° |
| 2026-05-08 10:06 | 50.85253 | 3.33378 | 27445 ft | 421 kts | 27° |
| 2026-05-08 10:06 | 50.87830 | 3.35534 | 26981 ft | 417 kts | 27° |
| 2026-05-08 10:06 | 50.90387 | 3.37679 | 26509 ft | 414 kts | 27° |
| 2026-05-08 10:07 | 50.92920 | 3.39807 | 26035 ft | 411 kts | 27° |
| 2026-05-08 10:07 | 50.95430 | 3.41918 | 25576 ft | 408 kts | 27° |
| 2026-05-08 10:07 | 50.97930 | 3.44024 | 25114 ft | 405 kts | 27° |
| 2026-05-08 10:07 | 51.00408 | 3.46114 | 24653 ft | 402 kts | 27° |
| 2026-05-08 10:08 | 51.02861 | 3.48185 | 24195 ft | 399 kts | 27° |
| 2026-05-08 10:08 | 51.05301 | 3.50248 | 23740 ft | 396 kts | 28° |
| 2026-05-08 10:08 | 51.07724 | 3.52299 | 23288 ft | 393 kts | 28° |
| 2026-05-08 10:08 | 51.10126 | 3.54334 | 22840 ft | 390 kts | 28° |
| 2026-05-08 10:09 | 51.12508 | 3.56356 | 22394 ft | 387 kts | 28° |
| 2026-05-08 10:09 | 51.14874 | 3.58365 | 21946 ft | 384 kts | 28° |
| 2026-05-08 10:09 | 51.17224 | 3.60363 | 21506 ft | 382 kts | 28° |
| 2026-05-08 10:09 | 51.19557 | 3.62349 | 21065 ft | 379 kts | 28° |
| 2026-05-08 10:10 | 51.21877 | 3.64324 | 20630 ft | 376 kts | 27° |
| 2026-05-08 10:10 | 51.24320 | 3.65726 | 20164 ft | 374 kts | 7° |
| 2026-05-08 10:10 | 51.26927 | 3.65880 | 19778 ft | 369 kts | 359° |
| 2026-05-08 10:10 | 51.29453 | 3.65785 | 19337 ft | 367 kts | 358° |
| 2026-05-08 10:11 | 51.32030 | 3.65652 | 18911 ft | 365 kts | 358° |
| 2026-05-08 10:11 | 51.34526 | 3.65528 | 18485 ft | 363 kts | 358° |
| 2026-05-08 10:11 | 51.37040 | 3.65416 | 18067 ft | 360 kts | 358° |
| 2026-05-08 10:11 | 51.39537 | 3.65319 | 17644 ft | 358 kts | 358° |
| 2026-05-08 10:12 | 51.42017 | 3.65232 | 17230 ft | 356 kts | 358° |
| 2026-05-08 10:12 | 51.44484 | 3.65150 | 16815 ft | 353 kts | 358° |
| 2026-05-08 10:12 | 51.46939 | 3.65071 | 16405 ft | 351 kts | 358° |
| 2026-05-08 10:12 | 51.49373 | 3.64994 | 15992 ft | 349 kts | 358° |
| 2026-05-08 10:13 | 51.51792 | 3.64918 | 15583 ft | 347 kts | 358° |
| 2026-05-08 10:13 | 51.54202 | 3.64842 | 15175 ft | 345 kts | 358° |
| 2026-05-08 10:13 | 51.56593 | 3.64767 | 14771 ft | 343 kts | 358° |
| 2026-05-08 10:13 | 51.58971 | 3.64692 | 14372 ft | 341 kts | 358° |
| 2026-05-08 10:14 | 51.61333 | 3.64617 | 13972 ft | 339 kts | 358° |
| 2026-05-08 10:14 | 51.63685 | 3.64543 | 13581 ft | 337 kts | 358° |
| 2026-05-08 10:14 | 51.66018 | 3.64469 | 13177 ft | 335 kts | 358° |
| 2026-05-08 10:14 | 51.68339 | 3.64396 | 12773 ft | 333 kts | 358° |
| 2026-05-08 10:15 | 51.70629 | 3.64740 | 12358 ft | 332 kts | 17° |
| 2026-05-08 10:15 | 51.72634 | 3.66499 | 11985 ft | 329 kts | 39° |
| 2026-05-08 10:15 | 51.74127 | 3.69264 | 11613 ft | 327 kts | 56° |
| 2026-05-08 10:15 | 51.75375 | 3.72380 | 11225 ft | 325 kts | 58° |
| 2026-05-08 10:16 | 51.76567 | 3.75472 | 10830 ft | 324 kts | 58° |
| 2026-05-08 10:16 | 51.77746 | 3.78541 | 10582 ft | 318 kts | 58° |
| 2026-05-08 10:16 | 51.78898 | 3.81524 | 10438 ft | 308 kts | 58° |
| 2026-05-08 10:16 | 51.80021 | 3.84416 | 10285 ft | 300 kts | 57° |
| 2026-05-08 10:17 | 51.81117 | 3.87225 | 10167 ft | 291 kts | 57° |
| 2026-05-08 10:17 | 51.82184 | 3.89955 | 10042 ft | 284 kts | 57° |
| 2026-05-08 10:17 | 51.83228 | 3.92625 | 9829 ft | 280 kts | 57° |